Welcome to Northern Hawkes Bay. New Zealand.
PWS Header
      nz Flag



Hit Counter


W3C Valid W3C Valid logo


    Wairoa

Select any of the Stations below to visit their websites.










Historic Data from Weather Underground
Select the location of interest below. Wairoa is the default. Please have patience, this Data is slow to load in.
Northern Hawkes Bay Historical Data
Daily Summary for April 17, 2018 Units:  English    Metric   Both
« Previous Day
Next Day »
Daily Weekly Monthly Yearly Custom
  High: Low: Average:
Temperature: 73.9 °F 54 °F 64.9 °F
Dew Point: 62.1 °F 41.7 °F 54.1 °F
Humidity: 95% 36% 70%
Wind Speed: 18.3mph 0mph 3.5mph
Wind Gust: 27.3mph - -
Wind- - West
Pressure: 29.8 in 29.6 in -
Precipitation: 0 in    
Historical Graphs
 
 
Tabular Data for April 17, 2018
Time Temperature Dew Point Pressure Wind Wind Speed Wind Gust Humidity Rainfall Rate (Hourly) solar
00:02 71.1 °F 57.9 °F 29.7 in NNW 1.6 mph 9.2 mph 63% 0 in 34 W/m2
00:07 70.9 °F 58.1 °F 29.7 in NNW 2.2 mph 7.6 mph 64% 0 in 39 W/m2
00:12 70.7 °F 58.5 °F 29.7 in NNW 0.7 mph 6 mph 65% 0 in 36 W/m2
00:17 70.7 °F 57.9 °F 29.7 in North 3.8 mph 6 mph 64% 0 in 39 W/m2
00:22 70.7 °F 57.6 °F 29.7 in North 2.2 mph 6 mph 63% 0 in 37 W/m2
00:27 70.9 °F 57.7 °F 29.7 in North 0.7 mph 7.6 mph 63% 0 in 35 W/m2
00:32 70.9 °F 57.7 °F 29.7 in Calm   7.6 mph 63% 0 in 32 W/m2
00:37 70.9 °F 57.7 °F 29.7 in Calm   4.5 mph 63% 0 in 33 W/m2
00:42 70.7 °F 57.6 °F 29.7 in NE 0.7 mph 5.4 mph 63% 0 in 34 W/m2
00:47 71.2 °F 57.9 °F 29.7 in Calm   5.4 mph 63% 0 in 43 W/m2
00:52 72.7 °F 58.5 °F 29.7 in NNE 2.2 mph 4.5 mph 61% 0 in 35 W/m2
00:57 72.9 °F 58.3 °F 29.7 in NNE 3.8 mph 5.4 mph 60% 0 in 36 W/m2
01:02 73.4 °F 58.3 °F 29.7 in NE 2.2 mph 5.4 mph 59% 0 in 29 W/m2
01:07 73.9 °F 57.7 °F 29.7 in Calm   5.4 mph 57% 0 in 24 W/m2
01:12 73.9 °F 57.7 °F 29.7 in NE 3.1 mph 6 mph 57% 0 in 16 W/m2
01:17 72.7 °F 57.9 °F 29.7 in NNE 4.5 mph 7.6 mph 60% 0 in 18 W/m2
01:22 71.6 °F 57.6 °F 29.7 in North 2.2 mph 8.3 mph 61% 0 in 16 W/m2
01:27 71.1 °F 58.3 °F 29.7 in North 7.6 mph 12.1 mph 64% 0 in 9 W/m2
01:32 70.7 °F 57.9 °F 29.7 in NNW 8.3 mph 13 mph 64% 0 in 4 W/m2
01:37 70.7 °F 57.9 °F 29.7 in North 6.9 mph 13.6 mph 64% 0 in 1 W/m2
01:42 70.9 °F 57.7 °F 29.7 in North 6.9 mph 14.5 mph 63% 0 in 0 W/m2
01:47 70.9 °F 57.2 °F 29.7 in North 5.4 mph 15.2 mph 62% 0 in 0 W/m2
01:52 70.7 °F 57.6 °F 29.7 in North 6 mph 15.2 mph 63% 0 in 0 W/m2
01:57 70.5 °F 57.4 °F 29.7 in NNW 6.9 mph 14.5 mph 63% 0 in 0 W/m2
02:02 70.5 °F 57.4 °F 29.7 in NNW 3.1 mph 14.5 mph 63% 0 in 0 W/m2
02:07 70.5 °F 57.4 °F 29.7 in North 3.8 mph 13 mph 63% 0 in 0 W/m2
02:12 70.5 °F 57.4 °F 29.7 in North 4.5 mph 10.7 mph 63% 0 in 0 W/m2
02:17 70.5 °F 57.4 °F 29.7 in North 6 mph 13.6 mph 63% 0 in 0 W/m2
02:22 70.5 °F 57.4 °F 29.7 in NNW 7.6 mph 13.6 mph 63% 0 in 0 W/m2
02:27 70.5 °F 57.4 °F 29.7 in NW 3.1 mph 11.4 mph 63% 0 in 0 W/m2
02:32 70.2 °F 57 °F 29.7 in NNW 7.6 mph 11.4 mph 63% 0 in 0 W/m2
02:37 70.2 °F 57 °F 29.7 in North 4.5 mph 9.8 mph 63% 0 in 0 W/m2
02:42 70.2 °F 57 °F 29.7 in North 3.8 mph 9.8 mph 63% 0 in 0 W/m2
02:47 70.3 °F 57.6 °F 29.7 in North 3.1 mph 9.2 mph 64% 0 in 0 W/m2
02:52 70.2 °F 57.4 °F 29.7 in North 2.2 mph 6.9 mph 64% 0 in 0 W/m2
02:57 70 °F 57.4 °F 29.7 in Calm   6.9 mph 64% 0 in 0 W/m2
03:02 69.8 °F 57.6 °F 29.7 in North 3.8 mph 6.9 mph 65% 0 in 0 W/m2
03:07 69.6 °F 57.7 °F 29.7 in North 1.6 mph 6.9 mph 66% 0 in 0 W/m2
03:12 69.4 °F 57.9 °F 29.7 in North 1.6 mph 7.6 mph 67% 0 in 0 W/m2
03:17 69.8 °F 57.9 °F 29.7 in North 4.5 mph 10.7 mph 66% 0 in 0 W/m2
03:22 70.2 °F 58.3 °F 29.7 in North 6.9 mph 13 mph 66% 0 in 0 W/m2
03:27 70.7 °F 58.5 °F 29.7 in NNW 6.9 mph 15.9 mph 65% 0 in 0 W/m2
03:32 70.9 °F 58.6 °F 29.7 in NW 13.6 mph 19.7 mph 65% 0 in 0 W/m2
03:37 70.9 °F 58.6 °F 29.7 in NW 13 mph 21.3 mph 65% 0 in 0 W/m2
03:42 70.9 °F 58.6 °F 29.7 in NNW 8.3 mph 21.3 mph 65% 0 in 0 W/m2
03:47 70.7 °F 58.5 °F 29.7 in NNW 6.9 mph 21.3 mph 65% 0 in 0 W/m2
03:52 70.2 °F 58.3 °F 29.7 in NNW 6.9 mph 16.8 mph 66% 0 in 0 W/m2
03:57 69.8 °F 58.5 °F 29.7 in NNW 4.5 mph 13 mph 67% 0 in 0 W/m2
04:02 69.4 °F 58.8 °F 29.7 in NNW 3.8 mph 9.8 mph 69% 0 in 0 W/m2
04:07 69.1 °F 58.8 °F 29.7 in NW 4.5 mph 9.2 mph 70% 0 in 0 W/m2
04:12 68.5 °F 58.8 °F 29.7 in NW 3.8 mph 10.7 mph 71% 0 in 0 W/m2
04:17 68.5 °F 59.2 °F 29.7 in NNW 3.8 mph 10.7 mph 72% 0 in 0 W/m2
04:22 68.5 °F 59.5 °F 29.7 in NNW 9.2 mph 14.5 mph 73% 0 in 0 W/m2
04:27 68.5 °F 59.9 °F 29.7 in NNW 9.8 mph 19.7 mph 74% 0 in 0 W/m2
04:32 68.5 °F 60.6 °F 29.7 in NNW 8.3 mph 19.7 mph 76% 0 in 0 W/m2
04:37 68 °F 61 °F 29.7 in NW 5.4 mph 15.9 mph 78% 0 in 0 W/m2
04:42 67.5 °F 61.9 °F 29.7 in NNW 3.1 mph 12.1 mph 82% 0 in 0 W/m2
04:47 66.9 °F 62.1 °F 29.7 in NNW 2.2 mph 9.2 mph 84% 0 in 0 W/m2
04:52 66.7 °F 61.9 °F 29.7 in NNW 1.6 mph 6.9 mph 84% 0 in 0 W/m2
04:57 66.4 °F 61.9 °F 29.7 in Calm   6.9 mph 85% 0 in 0 W/m2
05:02 65.8 °F 61.5 °F 29.7 in North 1.6 mph 4.5 mph 86% 0 in 0 W/m2
05:07 65.5 °F 61.5 °F 29.7 in North 1.6 mph 4.5 mph 87% 0 in 0 W/m2
05:12 65.1 °F 61.5 °F 29.7 in North 1.6 mph 4.5 mph 88% 0 in 0 W/m2
05:17 64.8 °F 61.2 °F 29.7 in North 1.6 mph 4.5 mph 88% 0 in 0 W/m2
05:22 64.4 °F 61.2 °F 29.7 in NNW 0.7 mph 3.1 mph 89% 0 in 0 W/m2
05:27 64.2 °F 61 °F 29.7 in North 2.2 mph 4.5 mph 89% 0 in 0 W/m2
05:32 64.9 °F 61.5 °F 29.7 in North 2.2 mph 7.6 mph 89% 0 in 0 W/m2
05:37 65.7 °F 62.1 °F 29.7 in North 4.5 mph 9.8 mph 88% 0 in 0 W/m2
05:42 66 °F 62.1 °F 29.7 in North 2.2 mph 9.8 mph 87% 0 in 0 W/m2
05:47 66 °F 62.1 °F 29.7 in NNE 2.2 mph 9.2 mph 87% 0 in 0 W/m2
05:52 66.2 °F 61.9 °F 29.7 in Calm   9.2 mph 86% 0 in 0 W/m2
05:57 66 °F 62.1 °F 29.7 in North 1.6 mph 8.3 mph 87% 0 in 0 W/m2
06:02 65.8 °F 61.9 °F 29.7 in Calm   6 mph 87% 0 in 0 W/m2
06:07 65.8 °F 61.9 °F 29.7 in Calm   3.8 mph 87% 0 in 0 W/m2
06:12 65.7 °F 61.7 °F 29.7 in Calm   3.1 mph 87% 0 in 0 W/m2
06:17 65.5 °F 61.5 °F 29.7 in Calm   0.7 mph 87% 0 in 0 W/m2
06:22 65.3 °F 61.3 °F 29.7 in Calm   0.7 mph 87% 0 in 0 W/m2
06:27 65.1 °F 61.5 °F 29.7 in NW 1.6 mph 3.1 mph 88% 0 in 0 W/m2
06:32 64.8 °F 61.2 °F 29.7 in Calm   3.1 mph 88% 0 in 0 W/m2
06:37 64.4 °F 60.8 °F 29.7 in Calm   2.2 mph 88% 0 in 0 W/m2
06:42 64.2 °F 60.3 °F 29.7 in Calm   1.6 mph 87% 0 in 0 W/m2
06:47 64.6 °F 60.3 °F 29.7 in North 2.2 mph 3.8 mph 86% 0 in 0 W/m2
06:52 65.3 °F 60.4 °F 29.7 in North 1.6 mph 6 mph 84% 0 in 0 W/m2
06:57 65.8 °F 59.9 °F 29.7 in North 0.7 mph 6 mph 81% 0 in 0 W/m2
07:02 65.8 °F 59.2 °F 29.7 in Calm   5.4 mph 79% 0 in 0 W/m2
07:07 65.7 °F 59 °F 29.7 in Calm   3.8 mph 79% 0 in 0 W/m2
07:12 64.9 °F 59 °F 29.7 in Calm   2.2 mph 81% 0 in 0 W/m2
07:17 64.4 °F 59.2 °F 29.7 in Calm   2.2 mph 83% 0 in 0 W/m2
07:22 64 °F 59.2 °F 29.7 in Calm   2.2 mph 84% 0 in 0 W/m2
07:27 63.7 °F 58.8 °F 29.7 in Calm     84% 0 in 0 W/m2
07:32 63.1 °F 58.6 °F 29.7 in Calm     85% 0 in 0 W/m2
07:37 62.8 °F 58.5 °F 29.7 in Calm     86% 0 in 0 W/m2
07:42 62.6 °F 58.6 °F 29.7 in Calm     87% 0 in 0 W/m2
07:47 62.4 °F 59.2 °F 29.7 in Calm     89% 0 in 0 W/m2
07:52 62.2 °F 59 °F 29.7 in Calm     89% 0 in 0 W/m2
07:57 62.1 °F 58.8 °F 29.7 in Calm     89% 0 in 0 W/m2
08:02 61.7 °F 58.5 °F 29.7 in Calm     89% 0 in 0 W/m2
08:07 61.7 °F 58.8 °F 29.7 in Calm     90% 0 in 0 W/m2
08:12 61.5 °F 58.6 °F 29.7 in Calm     90% 0 in 0 W/m2
08:17 61.3 °F 58.5 °F 29.7 in Calm     90% 0 in 0 W/m2
08:22 61.3 °F 58.5 °F 29.7 in Calm   3.1 mph 90% 0 in 0 W/m2
08:27 61.5 °F 58.8 °F 29.7 in Calm   3.1 mph 91% 0 in 0 W/m2
08:32 61.3 °F 58.5 °F 29.7 in Calm   2.2 mph 90% 0 in 0 W/m2
08:37 61.2 °F 58.3 °F 29.7 in Calm     90% 0 in 0 W/m2
08:42 61 °F 58.3 °F 29.7 in Calm   3.1 mph 91% 0 in 0 W/m2
08:47 61 °F 58.3 °F 29.7 in Calm   3.1 mph 91% 0 in 0 W/m2
08:52 60.6 °F 58.3 °F 29.7 in Calm   1.6 mph 92% 0 in 0 W/m2
08:57 60.3 °F 58.3 °F 29.7 in Calm   1.6 mph 93% 0 in 0 W/m2
09:02 60.1 °F 58.1 °F 29.7 in Calm   0.7 mph 93% 0 in 0 W/m2
09:07 59.7 °F 57.7 °F 29.7 in Calm   0.7 mph 93% 0 in 0 W/m2
09:12 59.7 °F 57.9 °F 29.7 in Calm   0.7 mph 94% 0 in 0 W/m2
09:17 59.7 °F 57.9 °F 29.7 in Calm   0.7 mph 94% 0 in 0 W/m2
09:22 59.7 °F 58.3 °F 29.7 in Calm   0.7 mph 95% 0 in 0 W/m2
09:27 59.7 °F 58.3 °F 29.7 in Calm   1.6 mph 95% 0 in 0 W/m2
09:32 59.5 °F 58.1 °F 29.7 in NNW 0.7 mph 3.1 mph 95% 0 in 0 W/m2
09:37 59.5 °F 58.1 °F 29.7 in NW 0.7 mph 4.5 mph 95% 0 in 0 W/m2
09:42 59.9 °F 58.3 °F 29.7 in NNW 2.2 mph 5.4 mph 94% 0 in 0 W/m2
09:47 60.6 °F 57.7 °F 29.7 in NNW 3.1 mph 6 mph 90% 0 in 0 W/m2
09:52 62.2 °F 57 °F 29.7 in NW 7.6 mph 9.8 mph 83% 0 in 0 W/m2
09:57 63.7 °F 55.6 °F 29.7 in NNW 4.5 mph 11.4 mph 75% 0 in 0 W/m2
10:02 64.2 °F 55 °F 29.7 in NNW 4.5 mph 11.4 mph 72% 0 in 0 W/m2
10:07 64.8 °F 54.9 °F 29.7 in NW 5.4 mph 11.4 mph 70% 0 in 0 W/m2
10:12 65.1 °F 54.3 °F 29.7 in NW 5.4 mph 13 mph 68% 0 in 0 W/m2
10:17 65.1 °F 54.3 °F 29.7 in NW 6 mph 13 mph 68% 0 in 0 W/m2
10:22 65.1 °F 54 °F 29.7 in NW 3.8 mph 13 mph 67% 0 in 0 W/m2
10:27 64.6 °F 53.8 °F 29.7 in NW 3.8 mph 11.4 mph 68% 0 in 0 W/m2
10:32 63.9 °F 54 °F 29.7 in NW 3.8 mph 8.3 mph 70% 0 in 0 W/m2
10:37 63.7 °F 53.8 °F 29.7 in NW 2.2 mph 8.3 mph 70% 0 in 0 W/m2
10:42 63.3 °F 53.8 °F 29.7 in NW 1.6 mph 6 mph 71% 0 in 0 W/m2
10:47 63 °F 53.4 °F 29.7 in NW 0.7 mph 6 mph 71% 0 in 0 W/m2
10:52 62.6 °F 53.4 °F 29.7 in NW 3.8 mph 5.4 mph 72% 0 in 0 W/m2
10:57 62.2 °F 53.4 °F 29.7 in Calm   5.4 mph 73% 0 in 0 W/m2
11:02 61.9 °F 53.4 °F 29.7 in NW 1.6 mph 5.4 mph 74% 0 in 0 W/m2
11:07 61.5 °F 53.2 °F 29.7 in NW 1.6 mph 4.5 mph 74% 0 in 0 W/m2
11:12 61.5 °F 53.4 °F 29.7 in Calm   4.5 mph 75% 0 in 0 W/m2
11:17 61.3 °F 53.4 °F 29.7 in Calm   4.5 mph 75% 0 in 0 W/m2
11:22 61.2 °F 53.2 °F 29.7 in NNW 2.2 mph 4.5 mph 75% 0 in 0 W/m2
11:27 61.2 °F 53.2 °F 29.7 in NNW 3.1 mph 6 mph 75% 0 in 0 W/m2
11:32 61 °F 52.5 °F 29.7 in NNW 3.8 mph 6 mph 74% 0 in 0 W/m2
11:37 60.8 °F 52.2 °F 29.7 in NNW 3.8 mph 7.6 mph 73% 0 in 0 W/m2
11:42 60.6 °F 52.3 °F 29.7 in North 3.8 mph 7.6 mph 74% 0 in 0 W/m2
11:47 60.4 °F 52.5 °F 29.7 in North 3.1 mph 9.8 mph 75% 0 in 0 W/m2
11:52 60.4 °F 52.5 °F 29.7 in NNW 3.8 mph 9.8 mph 75% 0 in 0 W/m2
11:57 60.4 °F 52.9 °F 29.7 in NNW 3.1 mph 9.2 mph 76% 0 in 0 W/m2
12:02 60.3 °F 52.7 °F 29.7 in NNW 3.1 mph 8.3 mph 76% 0 in 0 W/m2
12:07 60.1 °F 52.5 °F 29.7 in NNW 2.2 mph 6.9 mph 76% 0 in 0 W/m2
12:12 59.7 °F 52.5 °F 29.7 in NNW 3.8 mph 6.9 mph 77% 0 in 0 W/m2
12:17 59.5 °F 52.3 °F 29.7 in NW 1.6 mph 6 mph 77% 0 in 0 W/m2
12:22 59 °F 52.2 °F 29.7 in NW 2.2 mph 5.4 mph 78% 0 in 0 W/m2
12:43 58.5 °F 52.7 °F 29.7 in NNW 3.1 mph 6 mph 81% 0 in 0 W/m2
12:48 58.1 °F 52.3 °F 29.7 in North 4.5 mph 6.9 mph 81% 0 in 0 W/m2
12:53 58.1 °F 52.3 °F 29.7 in NNW 3.8 mph 6.9 mph 81% 0 in 0 W/m2
12:58 58.3 °F 52.5 °F 29.7 in NNW 3.8 mph 7.6 mph 81% 0 in 0 W/m2
13:03 58.5 °F 52.7 °F 29.7 in NNW 4.5 mph 8.3 mph 81% 0 in 0 W/m2
13:08 59.2 °F 52.3 °F 29.7 in North 5.4 mph 10.7 mph 78% 0 in 0 W/m2
13:13 59.5 °F 52.3 °F 29.7 in North 6 mph 10.7 mph 77% 0 in 0 W/m2
13:18 59.9 °F 52 °F 29.7 in NNW 3.8 mph 10.7 mph 75% 0 in 0 W/m2
13:23 59.9 °F 52 °F 29.7 in North 2.2 mph 10.7 mph 75% 0 in 0 W/m2
13:28 59.9 °F 52 °F 29.7 in North 0.7 mph 7.6 mph 75% 0 in 0 W/m2
13:33 59.7 °F 51.8 °F 29.7 in Calm   5.4 mph 75% 0 in 0 W/m2
13:38 58.8 °F 51.3 °F 29.7 in Calm   1.6 mph 76% 0 in 0 W/m2
13:43 58.3 °F 51.1 °F 29.7 in Calm     77% 0 in 0 W/m2
13:48 57.9 °F 51.1 °F 29.7 in Calm     78% 0 in 0 W/m2
13:53 57.6 °F 50.7 °F 29.7 in Calm     78% 0 in 0 W/m2
13:58 57.4 °F 50.9 °F 29.7 in Calm     79% 0 in 0 W/m2
14:03 57.2 °F 50.7 °F 29.7 in Calm     79% 0 in 0 W/m2
14:08 57 °F 51.3 °F 29.7 in Calm     81% 0 in 0 W/m2
14:13 56.5 °F 50.7 °F 29.6 in Calm     81% 0 in 0 W/m2
14:18 56.1 °F 50.4 °F 29.6 in Calm     81% 0 in 0 W/m2
14:23 55.8 °F 50.4 °F 29.7 in Calm     82% 0 in 0 W/m2
14:28 55.2 °F 50.2 °F 29.6 in Calm     83% 0 in 0 W/m2
14:33 54.7 °F 49.8 °F 29.6 in Calm   0.7 mph 84% 0 in 0 W/m2
14:38 54.5 °F 50.4 °F 29.6 in Calm   2.2 mph 86% 0 in 0 W/m2
14:43 54.5 °F 50.7 °F 29.6 in Calm   2.2 mph 87% 0 in 0 W/m2
14:48 54.3 °F 50.7 °F 29.6 in Calm     88% 0 in 3 W/m2
14:53 54.1 °F 50.7 °F 29.6 in Calm   1.6 mph 88% 0 in 7 W/m2
14:58 54 °F 50.7 °F 29.6 in Calm   1.6 mph 89% 0 in 10 W/m2
15:03 54.1 °F 51.3 °F 29.7 in Calm     90% 0 in 23 W/m2
15:08 54.7 °F 51.8 °F 29.7 in NW 0.7 mph 2.2 mph 90% 0 in 62 W/m2
15:13 55.2 °F 52.3 °F 29.7 in Calm   2.2 mph 90% 0 in 71 W/m2
15:18 56.5 °F 53.2 °F 29.7 in Calm   2.2 mph 89% 0 in 40 W/m2
15:38 60.1 °F 54.9 °F 29.7 in Calm     83% 0 in 127 W/m2
15:43 61.2 °F 55 °F 29.7 in Calm     80% 0 in 142 W/m2
15:48 63 °F 55.8 °F 29.7 in Calm     77% 0 in 155 W/m2
15:53 65.3 °F 57.9 °F 29.7 in Calm     77% 0 in 181 W/m2
15:58 67.3 °F 57.9 °F 29.7 in Calm     72% 0 in 207 W/m2
16:03 67.6 °F 55.9 °F 29.7 in Calm     66% 0 in 93 W/m2
16:08 66 °F 54 °F 29.7 in Calm   0.7 mph 65% 0 in 76 W/m2
16:13 64.8 °F 53.6 °F 29.7 in Calm   0.7 mph 67% 0 in 41 W/m2
16:18 63.9 °F 54 °F 29.7 in NNW 0.7 mph 3.1 mph 70% 0 in 57 W/m2
16:23 63.1 °F 53.6 °F 29.7 in Calm   3.1 mph 71% 0 in 36 W/m2
16:28 62.8 °F 53.6 °F 29.7 in Calm   3.1 mph 72% 0 in 28 W/m2
16:33 62.6 °F 53.8 °F 29.7 in Calm     73% 0 in 29 W/m2
16:38 62.4 °F 54 °F 29.7 in NNW 1.6 mph 3.1 mph 74% 0 in 30 W/m2
16:43 62.2 °F 54.1 °F 29.7 in NW 0.7 mph 3.8 mph 75% 0 in 46 W/m2
16:48 62.4 °F 54.3 °F 29.7 in Calm   3.8 mph 75% 0 in 51 W/m2
16:53 62.6 °F 54.7 °F 29.7 in Calm   3.8 mph 75% 0 in 56 W/m2
16:58 62.8 °F 54.9 °F 29.7 in Calm   1.6 mph 75% 0 in 56 W/m2
17:03 63.1 °F 55 °F 29.7 in West 1.6 mph 6.9 mph 75% 0 in 85 W/m2
17:08 63.5 °F 55.8 °F 29.7 in West 1.6 mph 6.9 mph 76% 0 in 91 W/m2
17:13 63.5 °F 56.1 °F 29.7 in WSW 5.4 mph 9.2 mph 77% 0 in 102 W/m2
17:18 63.7 °F 55.9 °F 29.7 in Calm   9.2 mph 76% 0 in 99 W/m2
17:23 63.9 °F 56.1 °F 29.7 in Calm   9.2 mph 76% 0 in 99 W/m2
17:28 64.2 °F 56.5 °F 29.7 in WSW 5.4 mph 6.9 mph 76% 0 in 93 W/m2
17:33 64.2 °F 56.1 °F 29.7 in SW 3.8 mph 6.9 mph 75% 0 in 73 W/m2
17:38 64 °F 55.2 °F 29.7 in SW 3.8 mph 9.2 mph 73% 0 in 114 W/m2
17:43 64.2 °F 55.4 °F 29.7 in WSW 6 mph 9.8 mph 73% 0 in 127 W/m2
17:48 64.9 °F 55.8 °F 29.7 in WSW 6 mph 11.4 mph 72% 0 in 99 W/m2
17:53 65.8 °F 55.8 °F 29.7 in SW 5.4 mph 11.4 mph 70% 0 in 72 W/m2
17:58 67.1 °F 55.4 °F 29.7 in SW 3.8 mph 9.2 mph 66% 0 in 69 W/m2
18:03 67.8 °F 55.6 °F 29.7 in SW 3.8 mph 8.3 mph 65% 0 in 67 W/m2
18:08 69.1 °F 54.7 °F 29.7 in SW 3.8 mph 6.9 mph 60% 0 in 68 W/m2
18:13 67.8 °F 53.4 °F 29.7 in SSW 2.2 mph 8.3 mph 60% 0 in 71 W/m2
18:18 67.8 °F 54 °F 29.7 in SW 4.5 mph 8.3 mph 61% 0 in 66 W/m2
18:23 66.4 °F 54 °F 29.7 in SSW 4.5 mph 9.2 mph 64% 0 in 67 W/m2
18:28 67.3 °F 55.6 °F 29.7 in South 2.2 mph 9.2 mph 66% 0 in 88 W/m2
18:33 67.8 °F 54.9 °F 29.7 in SSW 3.1 mph 7.6 mph 63% 0 in 130 W/m2
18:38 68.4 °F 54.9 °F 29.7 in SSW 4.5 mph 9.2 mph 62% 0 in 114 W/m2
18:43 66.7 °F 54.1 °F 29.7 in South 4.5 mph 9.2 mph 64% 0 in 405 W/m2
18:48 67.6 °F 55 °F 29.7 in South 0.7 mph 8.3 mph 64% 0 in 138 W/m2
18:53 68.5 °F 55.6 °F 29.7 in South 3.1 mph 6 mph 63% 0 in 406 W/m2
18:58 68.4 °F 54.3 °F 29.7 in Calm   5.4 mph 61% 0 in 74 W/m2
19:03 67.8 °F 54.3 °F 29.7 in SW 4.5 mph 6.9 mph 62% 0 in 123 W/m2
19:08 67.3 °F 50.5 °F 29.7 in West 2.2 mph 10.7 mph 55% 0 in 358 W/m2
19:13 67.8 °F 48.6 °F 29.7 in WNW 10.7 mph 15.2 mph 50% 0 in 158 W/m2
19:18 68.4 °F 46.8 °F 29.7 in NW 8.3 mph 15.2 mph 46% 0 in 159 W/m2
19:23 68.4 °F 46.8 °F 29.7 in NW 6.9 mph 16.8 mph 46% 0 in 463 W/m2
19:28 68.9 °F 47.3 °F 29.7 in NW 5.4 mph 16.8 mph 46% 0 in 465 W/m2
19:33 69.4 °F 46.6 °F 29.7 in NW 5.4 mph 17.4 mph 44% 0 in 486 W/m2
19:38 69.4 °F 46 °F 29.7 in NW 6.9 mph 17.4 mph 43% 0 in 469 W/m2
19:43 69.8 °F 45.7 °F 29.7 in NW 7.6 mph 17.4 mph 42% 0 in 435 W/m2
19:48 69.8 °F 44.4 °F 29.7 in WNW 13 mph 17.4 mph 40% 0 in 414 W/m2
19:53 69.8 °F 45.7 °F 29.7 in NW 6.9 mph 17.4 mph 42% 0 in 420 W/m2
19:58 69.1 °F 43.2 °F 29.7 in NW 7.6 mph 21.3 mph 39% 0 in 417 W/m2
20:03 68.9 °F 43.5 °F 29.7 in NW 6.9 mph 21.3 mph 40% 0 in 393 W/m2
20:08 68.5 °F 42.6 °F 29.7 in WNW 9.2 mph 15.2 mph 39% 0 in 93 W/m2
20:13 67.3 °F 43.3 °F 29.7 in WNW 6 mph 15.2 mph 42% 0 in 439 W/m2
20:18 68 °F 44.1 °F 29.7 in WNW 3.1 mph 14.5 mph 42% 0 in 185 W/m2
20:23 69.1 °F 43.9 °F 29.7 in WNW 3.8 mph 15.2 mph 40% 0 in 480 W/m2
20:28 70.3 °F 45 °F 29.7 in West 3.8 mph 15.2 mph 40% 0 in 447 W/m2
20:33 71.1 °F 45.5 °F 29.7 in West 3.8 mph 12.1 mph 40% 0 in 422 W/m2
20:38 70 °F 41.7 °F 29.7 in WNW 8.3 mph 17.4 mph 36% 0 in 405 W/m2
20:43 69.8 °F 43.2 °F 29.7 in NW 8.3 mph 17.4 mph 38% 0 in 402 W/m2
20:48 69.4 °F 44.8 °F 29.7 in NW 12.1 mph 23.5 mph 41% 0 in 394 W/m2
20:53 68.9 °F 45.5 °F 29.7 in NW 8.3 mph 23.5 mph 43% 0 in 391 W/m2
20:58 68.4 °F 43.2 °F 29.7 in NW 10.7 mph 22.1 mph 40% 0 in 381 W/m2
21:03 68.7 °F 44.8 °F 29.7 in NNW 8.3 mph 19.7 mph 42% 0 in 371 W/m2
21:08 68.9 °F 45 °F 29.7 in NW 18.3 mph 24.4 mph 42% 0 in 355 W/m2
21:13 68.5 °F 44.6 °F 29.7 in NW 15.9 mph 27.3 mph 42% 0 in 318 W/m2
21:18 68.4 °F 44.4 °F 29.7 in NW 7.6 mph 27.3 mph 42% 0 in 280 W/m2
21:23 68.4 °F 45 °F 29.7 in NW 10.7 mph 26.6 mph 43% 0 in 285 W/m2
21:28 68.5 °F 44.6 °F 29.7 in NW 9.2 mph 25.9 mph 42% 0 in 464 W/m2
21:33 69.1 °F 45.7 °F 29.7 in NW 10.7 mph 25.9 mph 43% 0 in 430 W/m2
21:38 68.4 °F 45 °F 29.7 in NW 9.8 mph 19 mph 43% 0 in 245 W/m2
21:43 67.8 °F 45.7 °F 29.7 in NW 13.6 mph 19 mph 45% 0 in 351 W/m2
21:48 67.6 °F 45.7 °F 29.7 in NNW 8.3 mph 19.7 mph 45% 0 in 247 W/m2
21:53 67.6 °F 45.7 °F 29.7 in NNW 11.4 mph 21.3 mph 45% 0 in 242 W/m2
21:58 66.9 °F 46 °F 29.7 in NW 13.6 mph 21.3 mph 47% 0 in 194 W/m2
22:03 65.7 °F 46.6 °F 29.7 in NW 8.3 mph 21.3 mph 50% 0 in 165 W/m2
22:08 64.4 °F 43.7 °F 29.7 in NW 12.1 mph 23.5 mph 47% 0 in 191 W/m2
22:13 65.7 °F 45 °F 29.7 in NW 15.9 mph 25.9 mph 47% 0 in 258 W/m2
22:31 65.8 °F 46.2 °F 29.7 in NW 8.3 mph 22.1 mph 49% 0 in 115 W/m2
22:36 65.7 °F 46 °F 29.7 in NW 9.2 mph 19 mph 49% 0 in 102 W/m2
22:41 66.4 °F 47.1 °F 29.7 in NNW 10.7 mph 19 mph 50% 0 in 89 W/m2
22:46 67.1 °F 47.3 °F 29.7 in NNW 8.3 mph 17.4 mph 49% 0 in 149 W/m2
22:51 67.6 °F 47.3 °F 29.7 in NNW 9.2 mph 17.4 mph 48% 0 in 100 W/m2
22:56 68 °F 45.9 °F 29.7 in NW 4.5 mph 15.9 mph 45% 0 in 88 W/m2
23:01 67.5 °F 45.3 °F 29.7 in WNW 8.3 mph 19 mph 45% 0 in 154 W/m2
23:06 68 °F 45.9 °F 29.7 in WNW 7.6 mph 19 mph 45% 0 in 162 W/m2
23:11 67.1 °F 45.1 °F 29.7 in WNW 5.4 mph 13.6 mph 45% 0 in 98 W/m2
23:16 64.9 °F 43.7 °F 29.7 in WNW 14.5 mph 20.6 mph 46% 0 in 83 W/m2
23:21 64 °F 45 °F 29.7 in WNW 5.4 mph 20.6 mph 50% 0 in 47 W/m2
23:26 63.3 °F 45 °F 29.8 in WNW 6.9 mph 20.6 mph 51% 0 in 23 W/m2
23:31 62.1 °F 43.2 °F 29.8 in WNW 14.5 mph 24.4 mph 50% 0 in 17 W/m2
23:36 60.3 °F 44.1 °F 29.7 in WNW 5.4 mph 24.4 mph 55% 0 in 34 W/m2
23:41 59.4 °F 44.6 °F 29.7 in WNW 3.1 mph 13.6 mph 58% 0 in 71 W/m2
23:46 59.2 °F 45.3 °F 29.7 in NW 1.6 mph 10.7 mph 60% 0 in 82 W/m2
23:51 58.8 °F 47.1 °F 29.8 in NW 2.2 mph 7.6 mph 65% 0 in 125 W/m2
23:56 59.5 °F 48.2 °F 29.8 in NW 0.7 mph 7.6 mph 66% 0 in 169 W/m2
Northern Hawkes Bay. New Zealand Historic Data
Compliments of Weather Underground - 2 mb